Time;durP1;ratioP1;P1;durP2;ratioP2;P2;SDS_P1;SDS_P2;PMS_P1;PMS_P2;Temp;Humidity;BMP_temperature;BMP_pressure;BME280_temperature;BME280_humidity;BME280_pressure;Samples;Min_cycle;Max_cycle;Signal;HPM_P1;HPM_P2
2021/07/23 00:02:16;;;;;;;11.38;8.30;;;18.40;80.60;;;;;;5090418;28;20047;-67
2021/07/23 00:04:42;;;;;;;10.45;7.72;;;18.40;80.80;;;;;;5090894;28;20422;-68
2021/07/23 00:07:08;;;;;;;13.15;8.55;;;18.40;80.50;;;;;;5089309;28;20028;-68
2021/07/23 00:09:33;;;;;;;14.63;7.90;;;18.40;80.80;;;;;;5090850;28;20035;-68
2021/07/23 00:11:59;;;;;;;12.55;7.70;;;18.30;80.60;;;;;;5091773;28;20060;-67
2021/07/23 00:14:25;;;;;;;12.35;7.70;;;18.30;80.60;;;;;;5091554;28;20103;-67
2021/07/23 00:16:51;;;;;;;11.35;7.72;;;18.30;80.70;;;;;;5090755;28;20035;-67
2021/07/23 00:19:16;;;;;;;11.57;7.97;;;18.20;81.00;;;;;;5091593;28;20099;-68
2021/07/23 00:21:42;;;;;;;14.25;8.20;;;18.20;81.00;;;;;;5090908;28;20100;-67
2021/07/23 00:24:07;;;;;;;10.75;7.88;;;18.10;80.90;;;;;;5091423;28;20480;-67
2021/07/23 00:26:33;;;;;;;11.73;7.63;;;18.10;81.00;;;;;;5090453;28;20670;-67
2021/07/23 00:28:59;;;;;;;12.88;7.85;;;18.10;81.10;;;;;;5091784;28;20028;-67
2021/07/23 00:31:24;;;;;;;12.68;7.82;;;18.10;81.10;;;;;;5091286;28;20032;-67
2021/07/23 00:33:50;;;;;;;9.18;7.70;;;18.00;80.90;;;;;;5091040;28;20480;-67
2021/07/23 00:36:15;;;;;;;11.77;7.95;;;18.00;81.00;;;;;;5089346;28;20028;-67
2021/07/23 00:38:41;;;;;;;9.07;7.28;;;17.90;81.00;;;;;;5090733;28;20425;-67
2021/07/23 00:41:06;;;;;;;10.52;7.45;;;17.90;81.10;;;;;;5091471;28;20081;-68
2021/07/23 00:43:32;;;;;;;10.48;7.65;;;17.80;81.20;;;;;;5090410;28;20577;-67
2021/07/23 00:45:58;;;;;;;12.43;7.97;;;17.80;81.20;;;;;;5089794;28;20067;-67
2021/07/23 00:48:24;;;;;;;11.73;7.80;;;17.80;81.30;;;;;;5092929;28;20043;-67
2021/07/23 00:50:51;;;;;;;12.32;7.72;;;17.80;81.50;;;;;;5091291;28;20032;-68
2021/07/23 00:53:17;;;;;;;11.98;7.70;;;17.80;81.40;;;;;;5091034;28;20507;-68
2021/07/23 00:55:49;;;;;;;11.50;7.90;;;17.80;81.30;;;;;;5070818;28;20032;-68
2021/07/23 00:58:15;;;;;;;11.32;8.38;;;17.70;81.30;;;;;;5091302;28;20027;-68
2021/07/23 01:00:41;;;;;;;11.20;8.35;;;17.70;81.60;;;;;;5091123;28;20149;-69
2021/07/23 01:03:06;;;;;;;12.63;8.60;;;17.60;81.80;;;;;;5086713;28;20104;-68
2021/07/23 01:05:34;;;;;;;12.25;8.45;;;17.50;81.80;;;;;;5089111;28;20039;-67
2021/07/23 01:08:01;;;;;;;14.68;9.43;;;17.50;81.80;;;;;;5072224;28;20032;-68
2021/07/23 01:10:27;;;;;;;14.38;8.63;;;17.40;82.50;;;;;;5081223;28;20024;-67
2021/07/23 01:12:53;;;;;;;11.25;8.55;;;17.40;82.20;;;;;;5089953;28;20036;-68
2021/07/23 01:15:19;;;;;;;12.00;9.23;;;17.40;82.10;;;;;;5089475;28;20024;-67
2021/07/23 01:17:44;;;;;;;14.15;8.38;;;17.30;82.10;;;;;;5090740;28;20024;-67
2021/07/23 01:20:10;;;;;;;11.88;8.70;;;17.30;82.10;;;;;;5090469;28;20058;-68
2021/07/23 01:22:40;;;;;;;17.67;9.00;;;17.20;82.00;;;;;;5090784;28;20028;-68
2021/07/23 01:25:06;;;;;;;13.52;8.75;;;17.20;82.20;;;;;;5089426;28;20054;-67
2021/07/23 01:27:36;;;;;;;16.88;9.20;;;17.20;82.10;;;;;;5090600;28;20024;-67
2021/07/23 01:30:07;;;;;;;14.20;8.48;;;17.20;82.30;;;;;;5090476;28;20027;-68
2021/07/23 01:32:34;;;;;;;12.25;8.93;;;17.20;83.30;;;;;;5088066;28;20369;-67
2021/07/23 01:34:59;;;;;;;13.07;8.38;;;17.20;82.70;;;;;;5089147;28;20035;-68
2021/07/23 01:37:25;;;;;;;10.68;8.02;;;17.20;82.50;;;;;;5090002;28;20512;-67
2021/07/23 01:39:53;;;;;;;11.35;8.35;;;17.10;82.40;;;;;;5089546;28;20491;-67
2021/07/23 01:42:19;;;;;;;12.88;8.55;;;17.10;82.50;;;;;;5080772;28;20025;-68
2021/07/23 01:44:44;;;;;;;13.75;8.98;;;17.10;82.50;;;;;;5096200;28;20718;-68
2021/07/23 01:47:10;;;;;;;11.60;8.55;;;17.10;82.70;;;;;;5071722;28;20024;-68
2021/07/23 01:49:36;;;;;;;13.95;9.45;;;17.00;82.60;;;;;;5090018;28;20025;-67
2021/07/23 01:52:02;;;;;;;12.98;8.57;;;17.00;82.60;;;;;;5072562;28;20076;-67
2021/07/23 01:54:28;;;;;;;15.30;9.40;;;17.00;82.70;;;;;;5089144;28;20016;-68
2021/07/23 01:56:54;;;;;;;16.75;8.70;;;17.00;82.90;;;;;;5087891;28;20586;-67
2021/07/23 01:59:20;;;;;;;13.95;8.43;;;17.00;82.90;;;;;;5071820;28;20055;-67
2021/07/23 02:01:45;;;;;;;14.05;9.57;;;16.90;82.80;;;;;;5088915;28;20024;-67
2021/07/23 02:04:11;;;;;;;18.05;9.38;;;17.00;83.00;;;;;;5086574;28;20469;-68
2021/07/23 02:06:36;;;;;;;10.27;7.75;;;17.00;83.10;;;;;;5088327;28;20024;-67
2021/07/23 02:09:02;;;;;;;13.73;8.38;;;16.90;83.10;;;;;;5089891;28;20317;-67
2021/07/23 02:11:28;;;;;;;11.77;8.38;;;16.90;83.20;;;;;;5090837;28;20028;-67
2021/07/23 02:13:53;;;;;;;11.50;9.10;;;16.90;83.30;;;;;;5089711;28;20391;-68
2021/07/23 02:16:19;;;;;;;14.68;8.80;;;16.90;83.20;;;;;;5052553;28;20036;-68
2021/07/23 02:18:44;;;;;;;13.77;8.77;;;16.80;83.30;;;;;;5087117;28;20073;-67
2021/07/23 02:21:10;;;;;;;12.90;9.13;;;16.90;83.50;;;;;;5071856;28;20016;-67
2021/07/23 02:23:35;;;;;;;13.50;9.00;;;16.80;83.40;;;;;;5090313;28;20026;-67
2021/07/23 02:26:01;;;;;;;14.05;9.63;;;16.80;83.50;;;;;;5089353;28;20032;-67
2021/07/23 02:28:27;;;;;;;12.85;8.82;;;16.80;83.80;;;;;;5089445;28;20035;-68
2021/07/23 02:30:52;;;;;;;14.98;9.57;;;16.90;83.90;;;;;;5089749;28;20031;-67
2021/07/23 02:33:18;;;;;;;16.52;9.25;;;16.90;83.80;;;;;;5070489;28;20082;-66
2021/07/23 02:35:43;;;;;;;13.38;9.20;;;16.80;83.90;;;;;;5087984;28;20329;-68
2021/07/23 02:38:09;;;;;;;12.55;8.75;;;16.70;84.00;;;;;;5089296;28;20384;-67
2021/07/23 02:40:34;;;;;;;16.50;9.75;;;16.70;84.10;;;;;;5090480;28;20569;-67
2021/07/23 02:43:00;;;;;;;14.57;9.30;;;16.70;84.20;;;;;;5088768;28;20024;-67
2021/07/23 02:45:26;;;;;;;14.07;9.73;;;16.70;84.20;;;;;;5087906;28;20035;-68
2021/07/23 02:47:51;;;;;;;13.68;9.82;;;16.70;84.20;;;;;;5088244;28;20020;-67
2021/07/23 02:50:19;;;;;;;12.88;9.50;;;16.70;84.30;;;;;;5086627;28;20055;-67
2021/07/23 02:52:45;;;;;;;12.98;9.60;;;16.70;84.40;;;;;;5089610;28;20032;-67
2021/07/23 02:55:10;;;;;;;15.55;9.55;;;16.70;84.50;;;;;;5088758;28;20046;-67
2021/07/23 02:57:36;;;;;;;15.70;10.25;;;16.70;84.50;;;;;;5090174;28;20427;-68
2021/07/23 03:00:03;;;;;;;14.18;9.73;;;16.60;84.30;;;;;;5091821;28;20016;-67
2021/07/23 03:02:29;;;;;;;15.88;9.88;;;16.60;84.40;;;;;;5091767;28;20075;-67
2021/07/23 03:04:54;;;;;;;12.93;9.50;;;16.60;84.40;;;;;;5091874;28;20491;-67
2021/07/23 03:07:20;;;;;;;11.73;9.23;;;16.60;84.40;;;;;;5092403;28;20073;-68
2021/07/23 03:09:45;;;;;;;14.30;9.32;;;16.50;84.50;;;;;;5093141;28;20391;-67
2021/07/23 03:12:13;;;;;;;15.43;9.50;;;16.50;84.50;;;;;;5092867;28;20500;-67
2021/07/23 03:14:38;;;;;;;17.75;10.35;;;16.50;84.50;;;;;;5091465;28;20105;-68
2021/07/23 03:17:08;;;;;;;14.38;10.10;;;16.50;84.50;;;;;;5092392;28;20488;-67
2021/07/23 03:19:33;;;;;;;15.02;9.70;;;16.40;84.80;;;;;;5092751;28;20020;-67
2021/07/23 03:21:59;;;;;;;14.73;9.75;;;16.40;84.80;;;;;;5092963;28;20404;-68
2021/07/23 03:24:25;;;;;;;14.52;9.95;;;16.40;84.90;;;;;;5092014;28;20028;-68
2021/07/23 03:26:50;;;;;;;14.02;9.98;;;16.40;85.00;;;;;;5073038;28;20032;-67
2021/07/23 03:29:16;;;;;;;15.27;10.63;;;16.40;84.90;;;;;;5091835;28;20051;-66
2021/07/23 03:31:41;;;;;;;16.55;10.15;;;16.40;85.10;;;;;;5105231;28;20039;-68
2021/07/23 03:34:07;;;;;;;16.52;10.63;;;16.30;85.40;;;;;;5095103;28;20031;-68
2021/07/23 03:36:32;;;;;;;16.77;10.27;;;16.30;85.50;;;;;;5072877;28;20484;-67
2021/07/23 03:38:58;;;;;;;16.70;10.60;;;16.20;85.50;;;;;;5091866;28;20357;-68
2021/07/23 03:41:23;;;;;;;14.57;9.18;;;16.20;85.50;;;;;;5091603;28;20361;-67
2021/07/23 03:43:49;;;;;;;13.43;9.68;;;16.20;85.60;;;;;;5074402;28;20480;-67
2021/07/23 03:46:14;;;;;;;16.73;10.15;;;16.20;85.60;;;;;;5090748;28;20101;-67
2021/07/23 03:48:40;;;;;;;15.50;9.88;;;16.20;85.60;;;;;;5091968;28;20031;-68
2021/07/23 03:51:05;;;;;;;13.38;9.48;;;16.10;85.50;;;;;;5069200;28;20020;-68
2021/07/23 03:53:31;;;;;;;17.65;9.68;;;16.10;85.60;;;;;;5092908;28;20028;-68
2021/07/23 03:55:56;;;;;;;16.75;10.38;;;16.10;85.70;;;;;;5073024;28;20111;-67
2021/07/23 03:58:23;;;;;;;17.13;10.40;;;16.10;85.90;;;;;;5091341;28;20067;-67
2021/07/23 04:00:49;;;;;;;14.63;10.43;;;16.10;85.90;;;;;;5093755;28;20016;-67
2021/07/23 04:03:14;;;;;;;15.40;10.32;;;16.00;85.90;;;;;;5070362;28;20073;-67
2021/07/23 04:05:40;;;;;;;13.95;10.48;;;16.00;85.90;;;;;;5071790;28;20039;-67
2021/07/23 04:08:05;;;;;;;19.25;10.88;;;16.00;86.00;;;;;;5091233;28;20022;-66
2021/07/23 04:10:31;;;;;;;17.73;10.93;;;16.00;86.10;;;;;;5072598;28;20024;-66
2021/07/23 04:12:57;;;;;;;15.07;10.73;;;16.00;86.20;;;;;;5091671;28;20027;-68
2021/07/23 04:15:23;;;;;;;16.52;9.93;;;15.90;86.20;;;;;;5065359;28;20024;-68
2021/07/23 04:17:48;;;;;;;14.43;9.82;;;15.90;86.30;;;;;;5091560;28;20111;-69
2021/07/23 04:20:14;;;;;;;15.75;10.18;;;15.90;86.40;;;;;;5091711;28;20027;-67
2021/07/23 04:22:40;;;;;;;13.52;10.13;;;15.90;86.50;;;;;;5091654;28;20028;-68
2021/07/23 04:25:06;;;;;;;15.25;10.07;;;15.90;86.70;;;;;;5071763;28;20024;-68
2021/07/23 04:27:31;;;;;;;15.68;9.50;;;15.90;86.70;;;;;;5091270;28;20028;-67
2021/07/23 04:29:57;;;;;;;16.00;10.35;;;15.90;86.70;;;;;;5090404;28;20043;-68
2021/07/23 04:32:23;;;;;;;14.10;9.88;;;15.90;86.70;;;;;;5090457;28;20031;-68
2021/07/23 04:34:48;;;;;;;15.43;9.45;;;15.90;86.70;;;;;;5100130;28;20551;-69
2021/07/23 04:37:14;;;;;;;15.30;9.93;;;15.90;86.80;;;;;;5090909;28;20078;-68
2021/07/23 04:39:39;;;;;;;15.52;9.18;;;15.90;86.90;;;;;;5091432;28;20024;-68
2021/07/23 04:42:06;;;;;;;16.92;9.60;;;15.80;87.40;;;;;;5073022;28;20059;-68
2021/07/23 04:44:32;;;;;;;16.02;9.48;;;15.90;87.10;;;;;;5090076;28;20499;-68
2021/07/23 04:47:01;;;;;;;13.02;9.48;;;15.90;87.20;;;;;;5089955;28;20072;-68
2021/07/23 04:49:27;;;;;;;16.98;10.48;;;15.90;87.30;;;;;;5091349;28;20020;-68
2021/07/23 04:51:53;;;;;;;14.32;10.20;;;15.90;87.40;;;;;;5089676;28;20035;-69
2021/07/23 04:54:19;;;;;;;13.15;10.02;;;15.90;87.50;;;;;;5090531;28;20028;-69
2021/07/23 04:56:46;;;;;;;16.17;10.57;;;16.00;87.70;;;;;;5089130;28;20030;-69
2021/07/23 04:59:11;;;;;;;21.92;10.88;;;16.00;87.90;;;;;;5089690;28;20095;-74
2021/07/23 05:01:37;;;;;;;18.98;10.60;;;15.90;87.80;;;;;;5091011;28;20484;-76
2021/07/23 05:04:02;;;;;;;14.85;10.35;;;15.90;88.00;;;;;;5072606;28;20024;-69
2021/07/23 05:06:28;;;;;;;13.43;9.68;;;15.80;88.10;;;;;;5071736;28;20016;-69
2021/07/23 05:08:54;;;;;;;14.38;10.43;;;15.90;88.10;;;;;;5090673;28;20057;-70
2021/07/23 05:11:20;;;;;;;18.20;11.77;;;15.90;88.30;;;;;;5094958;22;20950;-90
2021/07/23 05:13:49;;;;;;;13.02;10.43;;;16.00;88.40;;;;;;5078969;28;20028;-90
2021/07/23 05:16:18;;;;;;;17.75;10.80;;;16.00;88.60;;;;;;5083708;28;20028;-91
2021/07/23 05:18:44;;;;;;;15.90;11.50;;;16.10;88.70;;;;;;5075867;28;20039;-90
2021/07/23 05:21:10;;;;;;;17.67;11.50;;;16.10;88.60;;;;;;5070309;28;20019;-90
2021/07/23 05:23:39;;;;;;;16.48;10.75;;;16.10;88.60;;;;;;5074935;28;20031;-90
2021/07/23 05:26:05;;;;;;;17.20;11.60;;;16.20;88.70;;;;;;5081327;28;20024;-91
2021/07/23 05:28:32;;;;;;;19.98;10.70;;;16.30;88.70;;;;;;5075636;28;20032;-91
2021/07/23 05:30:58;;;;;;;15.85;10.15;;;16.30;88.70;;;;;;5070404;28;20087;-91
2021/07/23 05:33:24;;;;;;;17.55;12.13;;;16.40;88.70;;;;;;5093495;28;20031;-91
2021/07/23 05:35:50;;;;;;;15.60;11.27;;;16.50;88.90;;;;;;5073251;28;20024;-91
2021/07/23 05:38:16;;;;;;;16.40;10.77;;;16.50;88.80;;;;;;5068845;28;20492;-91
2021/07/23 05:40:45;;;;;;;22.27;12.00;;;16.60;88.70;;;;;;5093066;28;20024;-90
2021/07/23 05:43:13;;;;;;;17.77;11.20;;;16.70;88.50;;;;;;5081195;28;20020;-91
2021/07/23 05:46:31;;;;;;;16.25;11.10;;;16.70;88.40;;;;;;5068224;28;20036;-91
2021/07/23 05:49:19;;;;;;;19.23;10.90;;;16.70;89.00;;;;;;5073420;28;20047;-92
2021/07/23 05:51:53;;;;;;;16.52;11.70;;;16.70;88.60;;;;;;5075785;28;20476;-91
2021/07/23 05:57:35;;;;;;;15.45;10.68;;;16.80;88.70;;;;;;5092418;28;20032;-92
2021/07/23 06:00:11;;;;;;;15.85;11.13;;;16.90;88.60;;;;;;5073180;28;20064;-91
2021/07/23 06:02:44;;;;;;;14.93;11.00;;;16.90;88.70;;;;;;5075348;28;20044;-91
2021/07/23 06:05:11;;;;;;;;;;;16.90;88.30;;;;;;5076210;28;20115;-91
2021/07/23 06:07:40;;;;;;;15.65;10.82;;;16.90;87.80;;;;;;5075516;28;20415;-91
2021/07/23 06:10:36;;;;;;;14.93;11.15;;;16.90;88.30;;;;;;5075320;28;20372;-91
2021/07/23 06:13:18;;;;;;;15.13;10.05;;;16.90;88.40;;;;;;5079132;28;20027;-90
2021/07/23 06:16:01;;;;;;;16.50;11.55;;;16.90;88.50;;;;;;5074106;28;20036;-91
2021/07/23 06:18:32;;;;;;;15.93;11.02;;;16.90;88.10;;;;;;5074564;28;20055;-91
2021/07/23 06:21:46;;;;;;;15.68;11.05;;;17.00;88.30;;;;;;5075892;28;20028;-90
2021/07/23 06:24:41;;;;;;;18.67;11.52;;;17.00;88.50;;;;;;5074373;28;20028;-91
2021/07/23 06:27:33;;;;;;;14.75;10.68;;;17.10;88.20;;;;;;5057686;28;20032;-90
2021/07/23 06:29:58;;;;;;;19.57;12.07;;;17.10;88.10;;;;;;5070024;28;20044;-91
2021/07/23 06:32:35;;;;;;;20.20;11.68;;;17.20;88.20;;;;;;5074742;28;20024;-91
2021/07/23 06:35:11;;;;;;;15.32;10.32;;;17.30;88.40;;;;;;5077488;28;20024;-91
2021/07/23 06:37:37;;;;;;;15.38;10.63;;;17.40;88.40;;;;;;5078850;28;20023;-91
2021/07/23 06:40:09;;;;;;;17.67;11.18;;;17.50;88.10;;;;;;5096007;28;20028;-90
2021/07/23 06:42:47;;;;;;;;;;;;;;;;;;;;;
2021/07/23 06:45:22;;;;;;;17.38;10.90;;;17.70;87.90;;;;;;5115210;28;20044;-92
2021/07/23 06:47:59;;;;;;;19.77;11.00;;;17.80;87.70;;;;;;5094746;28;20032;-93
2021/07/23 06:50:35;;;;;;;15.93;10.35;;;18.00;87.60;;;;;;5099383;27;20019;-92
2021/07/23 06:53:08;;;;;;;20.13;11.13;;;18.10;87.40;;;;;;5090689;28;20074;-92
2021/07/23 06:55:50;;;;;;;20.48;11.32;;;18.10;87.10;;;;;;5078561;28;20040;-92
2021/07/23 06:58:31;;;;;;;18.48;12.13;;;18.20;87.00;;;;;;5078419;28;20115;-92
2021/07/23 07:01:35;;;;;;;14.40;10.85;;;18.30;86.80;;;;;;5079105;28;20103;-93
2021/07/23 07:04:07;;;;;;;17.15;10.40;;;18.40;86.60;;;;;;5075950;28;20421;-91
2021/07/23 07:06:34;;;;;;;19.92;10.98;;;18.60;86.10;;;;;;5070515;28;20043;-92
2021/07/23 07:09:00;;;;;;;15.65;10.23;;;18.70;86.30;;;;;;5078302;28;20036;-92
2021/07/23 07:11:26;;;;;;;18.75;10.90;;;18.90;86.00;;;;;;5080200;28;20563;-92
2021/07/23 07:13:52;;;;;;;17.35;10.07;;;19.20;85.70;;;;;;5080481;28;20024;-92
2021/07/23 07:16:17;;;;;;;18.25;10.00;;;19.50;85.60;;;;;;5077903;28;20066;-92
2021/07/23 07:18:52;;;;;;;14.73;9.88;;;19.70;85.10;;;;;;5077839;28;20008;-92
2021/07/23 07:21:20;;;;;;;16.52;10.05;;;20.10;84.60;;;;;;5096170;28;20073;-91
2021/07/23 07:23:46;;;;;;;14.52;9.50;;;20.40;84.10;;;;;;5077921;28;20048;-91
2021/07/23 07:26:24;;;;;;;14.63;9.13;;;20.70;83.40;;;;;;5069764;28;20052;-92
2021/07/23 07:29:05;;;;;;;12.55;8.73;;;20.90;82.50;;;;;;5071362;28;20028;-91
2021/07/23 07:31:37;;;;;;;13.30;9.32;;;21.10;81.90;;;;;;5065754;28;20103;-92
2021/07/23 07:34:04;;;;;;;;;;;21.30;81.60;;;;;;5075123;28;20051;-92
2021/07/23 07:36:29;;;;;;;13.35;8.38;;;21.50;81.90;;;;;;5070471;28;19915;-92
2021/07/23 07:39:03;;;;;;;16.10;8.85;;;21.80;81.40;;;;;;5076473;28;20019;-92
2021/07/23 07:41:33;;;;;;;11.23;7.75;;;22.10;81.00;;;;;;5071499;28;20080;-94
2021/07/23 07:44:10;;;;;;;;;;;;;;;;;;;;;
2021/07/23 07:46:53;;;;;;;14.88;8.68;;;22.80;79.00;;;;;;5094607;28;20024;-91
2021/07/23 07:49:21;;;;;;;13.77;8.30;;;23.00;77.80;;;;;;5090014;28;20032;-92
2021/07/23 07:51:51;;;;;;;14.75;8.57;;;23.20;77.10;;;;;;5086009;28;20021;-91
2021/07/23 07:54:28;;;;;;;13.35;7.85;;;23.30;76.10;;;;;;5100256;28;20103;-92
2021/07/23 08:00:09;;;;;;;11.48;7.90;;;23.60;74.80;;;;;;5095406;28;20028;-91
2021/07/23 08:02:37;;;;;;;9.00;7.22;;;23.80;74.00;;;;;;5094130;28;20020;-91
2021/07/23 08:05:04;;;;;;;12.80;7.53;;;23.90;73.10;;;;;;5077325;28;20111;-90
2021/07/23 08:10:45;;;;;;;12.25;7.90;;;24.60;73.00;;;;;;5095103;28;20150;-92
2021/07/23 08:13:23;;;;;;;;;;;;;;;;;;;;;
2021/07/23 08:16:04;;;;;;;;;;;;;;;;;;;;;
2021/07/23 08:18:30;;;;;;;12.05;7.20;;;25.70;70.90;;;;;;5093669;28;20024;-92
2021/07/23 08:20:56;;;;;;;12.95;7.82;;;25.90;69.70;;;;;;5076520;28;20110;-92
2021/07/23 08:23:22;;;;;;;12.13;7.68;;;26.10;69.10;;;;;;5078719;28;20034;-92
2021/07/23 08:25:48;;;;;;;11.88;7.43;;;26.30;67.30;;;;;;5076765;28;20101;-92
2021/07/23 08:28:15;;;;;;;11.75;7.15;;;26.40;67.70;;;;;;5070105;28;20028;-92
2021/07/23 08:30:41;;;;;;;10.95;6.78;;;26.60;67.60;;;;;;5068036;28;20032;-93
2021/07/23 08:33:13;;;;;;;31.17;8.52;;;27.00;67.40;;;;;;5078151;28;20031;-92
2021/07/23 08:35:41;;;;;;;10.00;6.57;;;27.30;66.90;;;;;;5081483;28;20032;-93
2021/07/23 08:38:07;;;;;;;11.68;7.35;;;27.50;66.60;;;;;;5069215;28;20032;-94
2021/07/23 08:40:33;;;;;;;9.57;6.45;;;27.60;65.60;;;;;;5080033;28;20395;-94
2021/07/23 08:43:02;;;;;;;14.18;7.05;;;27.90;64.00;;;;;;5079708;28;20066;-92
2021/07/23 08:45:29;;;;;;;10.93;7.25;;;28.30;61.70;;;;;;5069964;28;20047;-93
2021/07/23 08:47:56;;;;;;;13.55;7.57;;;28.60;61.40;;;;;;5085370;28;20070;-93
2021/07/23 08:50:24;;;;;;;11.95;7.00;;;29.10;60.40;;;;;;5099736;28;20012;-93
2021/07/23 08:52:50;;;;;;;12.23;6.95;;;29.50;59.40;;;;;;5078023;28;20024;-94
2021/07/23 08:55:18;;;;;;;9.23;6.22;;;29.90;58.20;;;;;;5077150;28;20104;-93
2021/07/23 08:57:45;;;;;;;12.20;7.22;;;30.20;57.20;;;;;;5079556;28;20460;-93
2021/07/23 09:00:16;;;;;;;13.70;8.18;;;30.60;57.20;;;;;;5074737;28;20024;-93
2021/07/23 09:02:58;;;;;;;;;;;31.00;55.70;;;;;;5077131;28;20092;-93
2021/07/23 09:05:35;;;;;;;9.35;6.88;;;31.40;57.00;;;;;;5068889;28;20322;-93
2021/07/23 09:08:01;;;;;;;10.73;7.57;;;31.80;55.60;;;;;;5078358;28;20042;-93
2021/07/23 09:10:29;;;;;;;8.40;6.82;;;32.20;54.90;;;;;;5068174;28;20025;-93
2021/07/23 09:12:59;;;;;;;13.65;8.18;;;32.50;53.70;;;;;;5072200;28;20078;-93
2021/07/23 09:15:27;;;;;;;11.85;6.97;;;32.80;53.10;;;;;;5086590;28;20488;-93
2021/07/23 09:17:54;;;;;;;11.98;7.35;;;33.10;52.70;;;;;;5079406;28;20042;-93
2021/07/23 09:20:25;;;;;;;10.35;6.35;;;33.50;51.90;;;;;;5077013;28;20032;-94
2021/07/23 09:22:56;;;;;;;8.05;6.53;;;33.80;50.10;;;;;;5079957;28;20030;-94
2021/07/23 09:25:48;;;;;;;10.52;6.57;;;34.00;49.40;;;;;;5078761;28;20050;-94
2021/07/23 09:28:35;;;;;;;9.15;5.85;;;34.20;50.00;;;;;;5075319;28;20036;-94
2021/07/23 09:31:03;;;;;;;10.80;6.78;;;34.40;49.40;;;;;;5082167;28;20479;-95
2021/07/23 09:33:34;;;;;;;11.68;7.40;;;34.40;47.80;;;;;;5080312;28;20028;-94
2021/07/23 09:36:05;;;;;;;8.52;5.95;;;34.30;46.70;;;;;;5082646;28;20028;-94
2021/07/23 09:38:41;;;;;;;7.40;5.82;;;34.40;46.90;;;;;;5084861;28;20016;-95
2021/07/23 09:41:12;;;;;;;5.70;5.03;;;34.60;46.50;;;;;;5105254;27;20040;-95
2021/07/23 09:43:42;;;;;;;8.55;5.90;;;34.60;45.20;;;;;;5099589;28;20246;-95
2021/07/23 09:46:24;;;;;;;11.40;6.28;;;34.70;45.50;;;;;;5103357;28;20031;-94
2021/07/23 09:49:01;;;;;;;8.50;5.68;;;34.70;44.90;;;;;;5081681;28;20314;-95
2021/07/23 09:51:26;;;;;;;10.52;5.97;;;34.50;44.70;;;;;;5082313;28;20032;-95
2021/07/23 09:53:56;;;;;;;6.60;5.57;;;34.30;45.00;;;;;;5067733;28;20024;-95
2021/07/23 09:56:26;;;;;;;8.10;5.22;;;34.30;45.70;;;;;;5085131;28;20027;-94
2021/07/23 09:59:30;;;;;;;;;;;;;;;;;;;;;
2021/07/23 10:02:24;;;;;;;8.30;5.10;;;34.10;46.20;;;;;;5107102;28;20044;-96
2021/07/23 10:08:19;;;;;;;7.15;5.57;;;33.60;45.60;;;;;;5075333;28;20084;-95
2021/07/23 10:10:51;;;;;;;8.90;6.22;;;33.40;45.70;;;;;;5093465;28;20022;-95
2021/07/23 10:13:27;;;;;;;8.13;6.18;;;33.10;46.00;;;;;;5079168;28;20031;-95
2021/07/23 10:15:54;;;;;;;7.40;5.43;;;33.00;45.60;;;;;;5084692;28;20020;-95
2021/07/23 10:18:28;;;;;;;6.20;5.43;;;32.80;46.50;;;;;;5085755;28;20039;-95
2021/07/23 10:20:57;;;;;;;7.93;6.00;;;32.70;46.20;;;;;;5084731;28;20505;-94
2021/07/23 10:23:37;;;;;;;8.32;5.97;;;32.60;46.30;;;;;;5093373;28;20028;-95
2021/07/23 10:26:04;;;;;;;9.20;6.17;;;32.30;46.30;;;;;;5093542;28;20024;-95
2021/07/23 10:28:46;;;;;;;9.20;5.95;;;32.20;46.70;;;;;;5086541;28;20028;-95
2021/07/23 10:31:32;;;;;;;9.25;5.80;;;31.70;47.00;;;;;;5087728;28;20483;-95
2021/07/23 10:34:02;;;;;;;8.80;6.32;;;31.30;48.10;;;;;;5085544;28;20166;-94
2021/07/23 10:36:30;;;;;;;8.97;6.63;;;31.10;47.50;;;;;;5077804;28;20029;-94
2021/07/23 10:39:05;;;;;;;8.63;6.32;;;30.90;47.90;;;;;;5082128;28;20804;-95
2021/07/23 10:41:42;;;;;;;10.57;6.40;;;30.60;47.70;;;;;;5081878;28;20039;-94
2021/07/23 10:44:21;;;;;;;8.88;5.90;;;30.20;47.50;;;;;;5089077;28;20028;-94
2021/07/23 10:46:53;;;;;;;7.78;6.03;;;29.90;48.40;;;;;;5077159;28;20063;-94
2021/07/23 10:49:25;;;;;;;9.75;6.45;;;29.70;50.20;;;;;;5073355;28;20039;-95
2021/07/23 10:51:58;;;;;;;9.30;6.68;;;29.80;49.90;;;;;;5082976;28;20066;-94
2021/07/23 10:54:34;;;;;;;11.50;5.63;;;29.90;49.40;;;;;;5081802;28;20044;-94
2021/07/23 10:57:00;;;;;;;7.32;5.65;;;30.00;49.20;;;;;;5098576;22;20044;-76
2021/07/23 10:59:41;;;;;;;11.25;6.55;;;29.90;48.50;;;;;;5075582;28;20035;-75
2021/07/23 11:02:15;;;;;;;11.90;7.05;;;29.50;49.00;;;;;;5073820;28;20032;-75
2021/07/23 11:04:42;;;;;;;8.90;6.28;;;29.40;49.50;;;;;;5086514;28;20454;-74
2021/07/23 11:07:10;;;;;;;12.30;6.15;;;29.20;50.20;;;;;;5093350;28;20024;-75
2021/07/23 11:09:36;;;;;;;11.55;6.00;;;29.10;51.30;;;;;;5093608;28;20535;-74
2021/07/23 11:12:18;;;;;;;10.52;6.25;;;29.20;51.10;;;;;;5103156;22;20040;-68
2021/07/23 11:14:51;;;;;;;10.65;6.65;;;29.20;51.30;;;;;;5066194;28;20483;-68
2021/07/23 11:17:17;;;;;;;13.23;6.35;;;29.20;51.30;;;;;;5092811;28;20039;-68
2021/07/23 11:19:52;;;;;;;10.90;6.20;;;29.30;51.40;;;;;;5092336;28;20411;-68
2021/07/23 11:22:23;;;;;;;10.38;6.38;;;29.30;51.40;;;;;;5093197;28;20361;-68
2021/07/23 11:24:49;;;;;;;10.52;6.40;;;29.40;51.40;;;;;;5092074;28;20642;-71
2021/07/23 11:27:28;;;;;;;9.90;6.15;;;29.50;50.90;;;;;;5074210;28;20036;-68
2021/07/23 11:29:55;;;;;;;9.77;6.32;;;29.40;51.00;;;;;;5092639;28;20020;-68
2021/07/23 11:32:21;;;;;;;9.57;6.10;;;29.40;50.50;;;;;;5093400;28;20050;-68
2021/07/23 11:34:48;;;;;;;11.45;7.03;;;29.30;50.60;;;;;;5072832;28;20028;-69
2021/07/23 11:37:15;;;;;;;8.68;6.57;;;29.30;50.40;;;;;;5092379;28;20032;-68
2021/07/23 11:40:00;;;;;;;9.80;6.03;;;29.20;50.80;;;;;;5093288;28;20039;-68
2021/07/23 11:42:34;;;;;;;10.82;6.03;;;29.20;50.30;;;;;;5074303;28;20039;-68
2021/07/23 11:45:01;;;;;;;9.65;6.25;;;29.20;50.00;;;;;;5091170;28;20024;-68
2021/07/23 11:47:32;;;;;;;7.72;6.25;;;29.20;50.40;;;;;;5091752;28;20107;-69
2021/07/23 11:50:00;;;;;;;7.47;6.32;;;29.10;50.60;;;;;;5092198;28;20480;-68
2021/07/23 11:52:26;;;;;;;12.55;6.25;;;29.10;49.90;;;;;;5092428;28;20028;-66
2021/07/23 11:55:08;;;;;;;12.05;6.35;;;29.00;49.70;;;;;;5089899;28;20032;-72
2021/07/23 11:57:40;;;;;;;13.35;6.75;;;28.80;49.80;;;;;;5073981;28;20074;-70
2021/07/23 12:00:19;;;;;;;12.07;6.72;;;28.70;49.80;;;;;;5092610;28;20044;-67
2021/07/23 12:02:45;;;;;;;10.80;6.55;;;28.60;50.30;;;;;;5092617;28;20085;-67
2021/07/23 12:05:13;;;;;;;9.45;7.00;;;28.40;51.90;;;;;;5091207;28;20028;-66
2021/07/23 12:07:39;;;;;;;10.48;5.80;;;28.40;51.60;;;;;;5092508;28;20396;-71
2021/07/23 12:10:09;;;;;;;10.90;6.28;;;28.40;52.00;;;;;;5092464;28;20020;-67
2021/07/23 12:12:37;;;;;;;8.52;6.20;;;28.50;51.90;;;;;;5095296;28;20146;-67
2021/07/23 12:15:11;;;;;;;8.38;6.00;;;28.60;52.10;;;;;;5111555;28;20052;-67
2021/07/23 12:17:41;;;;;;;9.88;6.13;;;28.80;52.10;;;;;;5093527;28;20410;-71
2021/07/23 12:20:07;;;;;;;7.72;5.97;;;28.90;52.40;;;;;;5074079;28;20472;-69
2021/07/23 12:22:34;;;;;;;9.07;6.63;;;29.00;52.10;;;;;;5092231;28;20032;-68
2021/07/23 12:25:20;;;;;;;9.93;6.55;;;29.10;51.60;;;;;;5091024;28;20468;-67
2021/07/23 12:27:46;;;;;;;9.15;6.38;;;29.10;50.40;;;;;;5091535;28;20024;-67
2021/07/23 12:30:13;;;;;;;11.85;6.53;;;29.00;50.50;;;;;;5091316;28;20020;-67
2021/07/23 12:32:39;;;;;;;11.07;6.28;;;28.90;50.10;;;;;;5073755;28;20073;-66
2021/07/23 12:35:05;;;;;;;7.65;5.97;;;28.70;50.00;;;;;;5090916;28;20021;-66
2021/07/23 12:37:31;;;;;;;11.13;6.40;;;28.60;49.80;;;;;;5073570;28;20525;-66
2021/07/23 12:40:01;;;;;;;12.68;6.32;;;28.60;50.20;;;;;;5091820;28;20032;-67
2021/07/23 12:42:28;;;;;;;9.43;6.05;;;28.60;50.80;;;;;;5093770;28;20020;-67
2021/07/23 12:44:54;;;;;;;12.93;6.25;;;28.60;50.40;;;;;;5078388;28;20545;-69
2021/07/23 12:47:29;;;;;;;8.75;6.10;;;28.70;50.40;;;;;;5073311;28;20442;-67
2021/07/23 12:49:55;;;;;;;10.85;6.22;;;28.60;50.70;;;;;;5091512;28;20422;-67
2021/07/23 12:52:28;;;;;;;10.88;6.32;;;28.60;50.90;;;;;;5088132;27;20450;-68
2021/07/23 12:55:04;;;;;;;10.23;5.95;;;28.70;50.70;;;;;;5088639;28;20442;-72
2021/07/23 12:57:29;;;;;;;9.23;6.28;;;28.70;50.70;;;;;;5107910;28;20642;-67
2021/07/23 13:00:19;;;;;;;8.32;6.10;;;28.70;51.80;;;;;;5108634;28;20020;-67
2021/07/23 13:02:45;;;;;;;13.15;6.28;;;28.80;52.60;;;;;;5100430;28;20106;-67
2021/07/23 13:05:11;;;;;;;8.05;6.40;;;29.00;52.20;;;;;;5107418;28;20024;-66
2021/07/23 13:07:36;;;;;;;14.88;5.90;;;29.00;51.20;;;;;;5089788;28;20020;-69
2021/07/23 13:10:03;;;;;;;9.60;6.75;;;28.90;51.40;;;;;;5108332;28;20111;-72